Time;durP1;ratioP1;P1;durP2;ratioP2;P2;SDS_P1;SDS_P2;PMS_P1;PMS_P2;Temp;Humidity;BMP_temperature;BMP_pressure;BME280_temperature;BME280_humidity;BME280_pressure;Samples;Min_cycle;Max_cycle;Signal;HPM_P1;HPM_P2
2022/11/02 00:00:13;;;;;;;4.43;3.42;;;;;;;9.46;80.59;95310.00;5049254;28;20204;-77
2022/11/02 00:02:40;;;;;;;4.57;2.85;;;;;;;9.54;81.35;95303.88;5048977;28;20278;-77
2022/11/02 00:05:11;;;;;;;5.43;2.67;;;;;;;9.63;81.30;95312.88;5049126;28;20199;-77
2022/11/02 00:07:38;;;;;;;6.75;3.05;;;;;;;9.61;80.21;95309.66;5048872;28;20203;-77
2022/11/02 00:10:05;;;;;;;8.25;3.53;;;;;;;9.60;79.65;95302.66;5049281;28;20215;-77
2022/11/02 00:12:34;;;;;;;8.57;3.67;;;;;;;9.60;79.75;95297.25;5052352;28;20231;-77
2022/11/02 00:15:00;;;;;;;6.68;3.30;;;;;;;9.56;79.21;95301.69;5052197;28;20203;-77
2022/11/02 00:17:28;;;;;;;10.23;3.67;;;;;;;9.50;79.10;95294.78;5052112;28;20199;-76
2022/11/02 00:19:55;;;;;;;3.20;2.38;;;;;;;9.49;79.07;95307.50;5052029;28;20203;-77
2022/11/02 00:22:23;;;;;;;6.35;3.08;;;;;;;9.42;79.42;95306.31;5046325;28;20252;-77
2022/11/02 00:24:49;;;;;;;3.83;2.97;;;;;;;9.39;79.36;95301.50;5071970;28;20476;-77
2022/11/02 00:27:16;;;;;;;11.07;3.03;;;;;;;9.40;79.35;95303.13;5051603;28;20261;-77
2022/11/02 00:29:44;;;;;;;4.68;2.10;;;;;;;9.47;79.57;95303.50;5051997;28;20689;-77
2022/11/02 00:32:11;;;;;;;4.22;2.05;;;;;;;9.42;79.66;95290.09;5052062;28;20281;-76
2022/11/02 00:34:38;;;;;;;2.50;1.95;;;;;;;9.42;79.99;95295.50;5052052;28;20803;-77
2022/11/02 00:37:05;;;;;;;4.70;2.75;;;;;;;9.40;79.97;95298.50;5051963;28;20203;-77
2022/11/02 00:39:31;;;;;;;7.47;3.08;;;;;;;9.35;79.84;95295.91;5051727;28;20206;-78
2022/11/02 00:41:58;;;;;;;4.45;2.22;;;;;;;9.37;80.25;95292.91;5051866;28;20211;-77
2022/11/02 00:44:25;;;;;;;3.88;2.55;;;;;;;9.31;80.04;95297.59;5065316;28;20203;-77
2022/11/02 00:46:54;;;;;;;5.22;2.33;;;;;;;9.30;80.23;95297.91;5051555;28;20215;-77
2022/11/02 00:49:21;;;;;;;9.73;3.25;;;;;;;9.18;80.01;95285.69;5051593;28;20215;-77
2022/11/02 00:51:47;;;;;;;4.22;2.92;;;;;;;9.19;80.44;95290.00;5051131;28;20203;-77
2022/11/02 00:54:14;;;;;;;11.70;2.70;;;;;;;9.22;80.43;95286.72;5051737;28;20200;-77
2022/11/02 00:56:41;;;;;;;4.68;2.22;;;;;;;9.16;80.40;95293.31;5051613;28;20539;-78
2022/11/02 00:59:08;;;;;;;5.63;2.30;;;;;;;9.18;80.75;95285.69;5050990;28;20204;-77
2022/11/02 01:01:34;;;;;;;5.95;2.28;;;;;;;9.13;80.76;95293.94;5051453;28;20248;-77
2022/11/02 01:04:03;;;;;;;14.20;3.70;;;;;;;9.14;80.77;95290.13;5051544;28;20288;-77
2022/11/02 01:06:30;;;;;;;5.45;2.40;;;;;;;9.12;81.01;95292.34;5051448;28;20200;-78
2022/11/02 01:08:58;;;;;;;8.32;2.70;;;;;;;9.14;80.39;95284.72;5051399;28;20211;-77
2022/11/02 01:11:27;;;;;;;3.90;2.28;;;;;;;9.12;80.46;95295.03;5051545;28;20211;-78
2022/11/02 01:13:54;;;;;;;11.93;2.70;;;;;;;9.06;80.83;95292.72;5051191;28;20227;-78
2022/11/02 01:16:21;;;;;;;5.80;2.88;;;;;;;9.05;81.41;95300.03;5051263;28;20210;-78
2022/11/02 01:18:52;;;;;;;5.72;3.30;;;;;;;9.07;81.62;95295.13;5051438;28;20253;-78
2022/11/02 01:21:20;;;;;;;3.15;2.15;;;;;;;9.01;81.61;95301.75;5050943;28;20242;-78
2022/11/02 01:23:47;;;;;;;4.25;2.22;;;;;;;8.99;81.28;95303.97;5050779;28;20203;-78
2022/11/02 01:26:14;;;;;;;4.95;3.40;;;;;;;9.00;81.70;95300.16;5050691;28;20203;-77
2022/11/02 01:28:41;;;;;;;6.20;2.75;;;;;;;9.02;81.44;95295.22;5050975;28;20250;-77
2022/11/02 01:31:10;;;;;;;12.77;3.58;;;;;;;8.99;81.86;95293.16;5050894;28;20224;-77
2022/11/02 01:33:37;;;;;;;9.68;2.60;;;;;;;8.92;82.26;95292.72;5050801;28;21049;-78
2022/11/02 01:36:05;;;;;;;9.85;3.05;;;;;;;8.85;82.85;95293.16;5051109;28;20213;-77
2022/11/02 01:38:34;;;;;;;14.38;5.90;;;;;;;8.81;82.84;95291.34;5057174;28;20215;-77
2022/11/02 01:41:01;;;;;;;12.18;6.13;;;;;;;8.80;83.29;95284.31;5057564;28;20215;-77
2022/11/02 01:43:29;;;;;;;14.30;6.05;;;;;;;8.73;83.54;95286.63;5050566;28;20245;-77
2022/11/02 01:46:00;;;;;;;15.82;5.93;;;;;;;8.76;83.71;95283.31;5050429;28;20212;-77
2022/11/02 01:48:31;;;;;;;15.15;5.80;;;;;;;8.79;84.35;95272.72;5051062;28;20238;-77
2022/11/02 01:51:01;;;;;;;11.45;6.05;;;;;;;8.86;83.42;95275.03;5050893;28;20206;-77
2022/11/02 01:53:29;;;;;;;13.40;5.80;;;;;;;8.95;83.38;95273.22;5050341;28;20824;-77
2022/11/02 01:55:58;;;;;;;12.55;5.97;;;;;;;9.01;82.90;95279.34;5050449;28;20203;-77
2022/11/02 01:58:26;;;;;;;4.80;3.10;;;;;;;8.90;82.84;95278.72;5050363;28;20208;-77
2022/11/02 02:00:55;;;;;;;15.60;6.05;;;;;;;9.04;82.23;95273.31;5054241;28;20198;-77
2022/11/02 02:03:22;;;;;;;8.65;3.42;;;;;;;9.03;82.44;95275.22;5059089;28;20229;-77
2022/11/02 02:05:55;;;;;;;4.35;2.70;;;;;;;8.99;82.90;95260.72;5050120;28;20678;-77
2022/11/02 02:08:25;;;;;;;13.85;5.88;;;;;;;8.90;83.49;95268.72;5050093;28;20237;-77
2022/11/02 02:10:55;;;;;;;14.05;5.88;;;;;;;8.81;83.83;95273.22;5050137;28;20199;-77
2022/11/02 02:13:25;;;;;;;9.68;5.13;;;;;;;8.78;84.18;95275.72;5049796;28;20211;-77
2022/11/02 02:16:02;;;;;;;12.73;5.53;;;;;;;8.75;84.14;95270.91;5050480;28;20199;-77
2022/11/02 02:18:36;;;;;;;10.85;5.95;;;;;;;8.76;84.35;95272.50;5050261;28;20340;-77
2022/11/02 02:21:18;;;;;;;5.20;2.95;;;;;;;8.76;84.32;95267.09;5049814;28;20651;-77
2022/11/02 02:24:12;;;;;;;9.25;3.55;;;;;;;8.85;83.99;95265.31;5063061;28;20199;-77
2022/11/02 02:27:09;;;;;;;4.35;2.30;;;;;;;8.84;84.52;95267.22;5049941;28;20196;-77
2022/11/02 02:29:48;;;;;;;5.22;3.30;;;;;;;8.78;84.25;95260.31;5015047;28;20253;-77
2022/11/02 02:32:19;;;;;;;10.35;3.28;;;;;;;8.74;84.38;95269.34;5037782;28;20258;-77
2022/11/02 02:34:53;;;;;;;8.90;3.92;;;;;;;8.76;84.53;95256.31;5049724;28;20196;-77
2022/11/02 02:37:26;;;;;;;7.50;2.30;;;;;;;8.71;84.68;95259.13;5049975;28;20184;-77
2022/11/02 02:40:01;;;;;;;5.18;2.45;;;;;;;8.72;84.15;95258.81;5049915;28;20286;-77
2022/11/02 02:42:33;;;;;;;5.75;2.58;;;;;;;8.78;83.82;95259.50;5049881;28;20230;-76
2022/11/02 02:45:08;;;;;;;5.65;1.73;;;;;;;8.77;84.01;95257.91;5049736;28;20265;-77
2022/11/02 02:47:40;;;;;;;6.70;2.30;;;;;;;8.73;84.14;95259.63;5049317;28;20682;-76
2022/11/02 02:50:14;;;;;;;7.07;3.22;;;;;;;8.73;84.35;95262.31;5049939;28;20720;-76
2022/11/02 02:52:44;;;;;;;3.55;2.80;;;;;;;8.60;83.96;95263.94;5049527;28;20215;-77
2022/11/02 02:55:17;;;;;;;4.05;2.63;;;;;;;8.33;84.86;95263.91;5049676;28;20662;-77
2022/11/02 02:57:47;;;;;;;4.47;2.70;;;;;;;8.16;85.11;95259.03;5049464;28;20200;-77
2022/11/02 03:00:17;;;;;;;5.18;3.38;;;;;;;8.11;85.85;95265.31;5049601;28;20234;-77
2022/11/02 03:02:59;;;;;;;9.52;4.57;;;;;;;8.24;85.79;95254.81;5062696;28;20574;-76
2022/11/02 03:05:28;;;;;;;8.15;4.35;;;;;;;8.28;85.62;95258.53;5049113;28;20635;-76
2022/11/02 03:07:56;;;;;;;12.50;5.25;;;;;;;8.31;85.34;95255.25;5049120;28;20195;-76
2022/11/02 03:10:32;;;;;;;13.13;5.38;;;;;;;8.36;85.33;95255.97;5049125;28;20254;-76
2022/11/02 03:13:10;;;;;;;5.95;2.97;;;;;;;8.29;85.10;95258.25;5049146;28;20215;-76
2022/11/02 03:15:41;;;;;;;8.38;3.70;;;;;;;8.31;85.28;95264.16;5049726;28;20278;-76
2022/11/02 03:18:17;;;;;;;14.05;2.95;;;;;;;8.26;84.90;95264.22;5049135;28;20561;-76
2022/11/02 03:20:54;;;;;;;5.68;2.50;;;;;;;8.24;84.82;95269.13;5049665;28;20282;-76
2022/11/02 03:23:27;;;;;;;3.30;2.13;;;;;;;8.23;85.66;95270.22;5050172;28;20195;-76
2022/11/02 03:26:02;;;;;;;3.92;2.58;;;;;;;8.19;85.39;95263.84;5049243;28;20238;-77
2022/11/02 03:28:42;;;;;;;8.55;2.35;;;;;;;8.15;85.33;95271.72;5049199;28;20282;-77
2022/11/02 03:31:16;;;;;;;7.10;3.22;;;;;;;8.19;85.44;95269.22;5048937;28;20775;-77
2022/11/02 03:33:49;;;;;;;8.13;2.88;;;;;;;8.18;85.20;95267.63;5048813;28;20646;-76
2022/11/02 03:36:20;;;;;;;8.82;3.65;;;;;;;8.15;85.64;95273.59;5049227;28;20191;-76
2022/11/02 03:38:51;;;;;;;5.60;2.75;;;;;;;8.10;85.57;95265.59;5049478;28;20604;-76
2022/11/02 03:41:20;;;;;;;6.85;3.10;;;;;;;8.13;85.98;95275.78;5049225;28;20254;-76
2022/11/02 03:43:51;;;;;;;13.82;3.97;;;;;;;8.18;85.84;95264.94;5049302;28;20740;-77
2022/11/02 03:46:21;;;;;;;3.60;2.17;;;;;;;8.18;85.56;95267.63;5053019;28;20206;-76
2022/11/02 03:48:51;;;;;;;5.47;2.05;;;;;;;8.14;85.78;95259.31;5053310;28;20306;-77
2022/11/02 03:51:20;;;;;;;6.55;2.92;;;;;;;8.22;85.94;95268.63;5067045;28;20196;-76
2022/11/02 03:53:52;;;;;;;6.32;2.78;;;;;;;8.16;86.24;95264.41;5053097;28;20293;-77
2022/11/02 03:56:25;;;;;;;7.95;2.15;;;;;;;8.08;86.51;95267.78;5052717;28;20278;-77
2022/11/02 03:58:52;;;;;;;3.17;2.55;;;;;;;8.06;86.96;95262.69;5052398;28;20227;-77
2022/11/02 04:01:21;;;;;;;12.60;5.60;;;;;;;8.00;87.16;95258.47;5038953;28;20639;-77
2022/11/02 04:03:48;;;;;;;12.50;6.25;;;;;;;8.04;87.34;95262.19;5065643;28;20211;-77
2022/11/02 04:06:16;;;;;;;14.27;6.25;;;;;;;7.98;87.38;95257.16;5052867;28;20203;-77
2022/11/02 04:08:46;;;;;;;12.45;6.68;;;;;;;8.05;87.75;95263.00;5052613;28;20740;-77
2022/11/02 04:16:44;;;;;;;16.50;6.53;;;;;;;8.06;87.50;95259.22;5052469;28;20250;-77
2022/11/02 04:19:28;;;;;;;14.27;5.95;;;;;;;8.04;87.52;95250.59;5052650;28;20257;-77
2022/11/02 04:27:24;;;;;;;13.38;5.78;;;;;;;8.00;87.27;95257.69;5040115;28;20238;-77
2022/11/02 04:29:51;;;;;;;12.38;5.72;;;;;;;7.92;87.08;95261.06;5052319;28;20285;-77
2022/11/02 04:35:00;;;;;;;13.98;6.68;;;;;;;7.85;87.10;95275.72;5051244;28;20293;-76
2022/11/02 04:40:12;;;;;;;15.10;7.30;;;;;;;7.87;87.39;95275.41;5051673;28;20222;-77
2022/11/02 04:42:39;;;;;;;14.25;7.03;;;;;;;7.85;87.71;95264.13;5051799;28;20212;-77
2022/11/02 04:45:06;;;;;;;20.13;7.88;;;;;;;7.88;87.92;95273.53;5051828;28;20233;-77
2022/11/02 04:47:34;;;;;;;15.15;7.57;;;;;;;7.88;88.13;95273.53;5052202;28;20265;-77
2022/11/02 04:50:01;;;;;;;18.20;8.60;;;;;;;7.84;88.34;95267.91;5052150;28;20208;-77
2022/11/02 04:52:28;;;;;;;17.15;8.75;;;;;;;7.82;88.51;95264.69;5051482;28;20200;-77
2022/11/02 04:54:55;;;;;;;13.48;6.93;;;;;;;7.91;88.33;95267.56;5051849;28;20231;-77
2022/11/02 04:57:21;;;;;;;16.17;7.43;;;;;;;7.89;88.50;95267.03;5050750;28;20199;-77
2022/11/02 04:59:48;;;;;;;4.78;2.88;;;;;;;7.81;89.02;95269.28;5051631;28;20196;-77
2022/11/02 05:02:15;;;;;;;8.05;3.83;;;;;;;7.80;89.20;95262.28;5051156;28;20277;-77
2022/11/02 05:04:43;;;;;;;6.88;3.80;;;;;;;7.78;89.38;95269.09;5051210;28;20689;-77
2022/11/02 05:07:11;;;;;;;8.10;3.00;;;;;;;7.83;89.19;95269.81;5051414;28;20261;-77
2022/11/02 05:09:41;;;;;;;11.50;3.42;;;;;;;7.75;88.60;95273.19;5042131;28;20636;-76
2022/11/02 05:12:08;;;;;;;8.68;3.95;;;;;;;7.67;89.08;95279.22;5049471;28;20207;-77
2022/11/02 05:14:35;;;;;;;10.77;3.42;;;;;;;7.78;89.03;95283.38;5051610;28;20274;-77
2022/11/02 05:17:02;;;;;;;5.03;3.22;;;;;;;7.93;89.01;95282.31;5050762;28;20226;-77
2022/11/02 05:19:29;;;;;;;7.00;4.18;;;;;;;8.09;88.70;95280.19;5047807;28;20207;-78
2022/11/02 05:21:57;;;;;;;6.70;3.60;;;;;;;8.35;87.98;95284.06;5054581;28;20196;-78
2022/11/02 05:24:24;;;;;;;11.18;5.45;;;;;;;8.51;86.96;95285.41;5071104;28;20261;-77
2022/11/02 05:26:51;;;;;;;9.15;4.30;;;;;;;8.64;86.12;95291.13;5053985;28;20188;-77
2022/11/02 05:29:17;;;;;;;19.08;5.45;;;;;;;8.97;85.00;95283.72;5050768;28;20207;-78
2022/11/02 05:31:44;;;;;;;20.10;5.78;;;;;;;9.22;83.84;95302.94;5050642;28;20635;-77
2022/11/02 05:34:11;;;;;;;10.38;4.35;;;;;;;9.44;82.74;95295.97;5050165;28;20296;-78
2022/11/02 05:36:38;;;;;;;9.63;4.10;;;;;;;9.77;82.15;95294.69;5050713;28;20756;-76
2022/11/02 05:39:06;;;;;;;9.38;4.85;;;;;;;10.18;80.29;95291.84;5050261;28;20647;-78
2022/11/02 05:41:32;;;;;;;19.27;4.72;;;;;;;11.07;78.17;95287.38;5050947;28;20276;-78
2022/11/02 05:43:59;;;;;;;12.98;4.43;;;;;;;11.82;74.86;95291.69;5050392;28;20230;-76
2022/11/02 05:46:26;;;;;;;14.25;5.05;;;;;;;12.49;72.34;95294.66;5050164;28;20208;-77
2022/11/02 05:48:53;;;;;;;12.30;5.03;;;;;;;13.03;69.60;95290.31;5050904;28;20204;-78
2022/11/02 05:51:20;;;;;;;15.38;7.45;;;;;;;13.57;67.39;95293.28;5050764;28;20212;-75
2022/11/02 05:53:47;;;;;;;10.88;5.20;;;;;;;13.97;65.54;95290.91;5050747;28;20235;-77
2022/11/02 05:56:15;;;;;;;14.13;6.38;;;;;;;14.37;64.69;95301.31;5050368;28;20211;-76
2022/11/02 05:58:42;;;;;;;8.80;4.63;;;;;;;14.59;63.14;95300.97;5050002;28;20204;-77
2022/11/02 06:01:10;;;;;;;13.50;5.32;;;;;;;14.75;61.67;95291.03;5050585;28;20277;-77
2022/11/02 06:03:36;;;;;;;10.77;4.88;;;;;;;15.07;61.34;95300.28;5050337;28;20759;-77
2022/11/02 06:06:05;;;;;;;11.50;5.10;;;;;;;15.74;60.31;95300.88;5049739;28;20612;-75
2022/11/02 06:08:33;;;;;;;15.48;4.68;;;;;;;15.82;59.53;95306.22;5050047;28;20204;-76
2022/11/02 06:11:04;;;;;;;13.90;5.18;;;;;;;15.77;59.09;95305.66;5036772;28;20388;-74
2022/11/02 06:13:35;;;;;;;14.52;5.10;;;;;;;16.46;57.43;95302.63;5043898;28;20241;-74
2022/11/02 06:16:23;;;;;;;14.75;5.82;;;;;;;16.49;56.42;95306.59;5058026;28;20234;-75
2022/11/02 06:18:53;;;;;;;11.05;5.88;;;;;;;16.45;56.25;95302.97;5045348;28;20208;-76
2022/11/02 06:21:22;;;;;;;11.27;5.72;;;;;;;16.07;57.40;95300.72;5049998;28;20294;-76
2022/11/02 06:24:00;;;;;;;12.05;5.90;;;;;;;16.47;57.64;95295.22;5049363;28;20204;-74
2022/11/02 06:26:33;;;;;;;17.20;6.18;;;;;;;15.48;59.11;95304.72;5047042;28;20183;-76
2022/11/02 06:29:10;;;;;;;11.25;6.28;;;;;;;15.62;59.99;95290.75;5050018;28;20274;-77
2022/11/02 06:31:38;;;;;;;13.27;5.97;;;;;;;15.51;60.13;95304.06;5049432;28;20235;-76
2022/11/02 06:34:17;;;;;;;11.85;6.45;;;;;;;15.15;61.17;95309.50;5049335;28;20330;-77
2022/11/02 06:36:53;;;;;;;22.58;10.43;;;;;;;14.84;62.33;95315.47;5049131;28;20207;-75
2022/11/02 06:39:27;;;;;;;25.45;7.88;;;;;;;14.53;63.14;95311.28;5049419;28;20567;-76
2022/11/02 06:41:54;;;;;;;20.58;10.75;;;;;;;14.51;63.56;95320.94;5049101;28;20253;-74
2022/11/02 06:44:26;;;;;;;27.98;11.30;;;;;;;14.28;63.83;95325.94;5049552;28;20278;-76
2022/11/02 06:46:53;;;;;;;18.90;8.07;;;;;;;14.32;65.07;95317.88;5049598;28;20238;-76
2022/11/02 06:49:20;;;;;;;24.25;11.07;;;;;;;14.10;65.34;95317.09;5041411;28;20265;-76
2022/11/02 06:51:46;;;;;;;17.92;10.15;;;;;;;13.99;66.04;95312.38;5049582;28;20210;-76
2022/11/02 06:54:17;;;;;;;16.63;6.50;;;;;;;13.90;66.62;95311.66;5049456;28;20227;-74
2022/11/02 06:56:44;;;;;;;23.17;11.23;;;;;;;13.94;66.74;95318.03;5048618;28;20200;-75
2022/11/02 06:59:10;;;;;;;15.52;6.93;;;;;;;13.96;66.12;95311.09;5049527;28;20250;-74
2022/11/02 07:01:39;;;;;;;18.58;6.88;;;;;;;13.69;66.39;95298.81;5049259;28;20260;-74
2022/11/02 07:04:05;;;;;;;22.02;11.18;;;;;;;13.62;67.24;95308.63;5049518;28;20261;-74
2022/11/02 07:06:32;;;;;;;31.13;12.55;;;;;;;13.53;67.48;95308.66;5048730;28;20245;-74
2022/11/02 07:08:59;;;;;;;19.55;7.93;;;;;;;13.79;66.73;95308.53;5049398;28;20199;-74
2022/11/02 07:11:26;;;;;;;17.13;8.23;;;;;;;13.75;66.64;95310.31;5048917;28;20329;-75
2022/11/02 07:13:52;;;;;;;18.00;8.48;;;;;;;13.65;66.96;95305.25;5049157;28;20277;-76
2022/11/02 07:16:19;;;;;;;19.98;8.60;;;;;;;13.79;66.53;95303.09;5049070;28;20202;-77
2022/11/02 07:18:47;;;;;;;17.35;8.32;;;;;;;13.86;66.57;95311.50;5052309;28;20215;-77
2022/11/02 07:21:14;;;;;;;27.13;13.65;;;;;;;13.92;66.38;95309.41;5063166;28;20207;-77
2022/11/02 07:23:41;;;;;;;14.32;7.68;;;;;;;13.78;66.58;95309.66;5067727;28;20208;-74
2022/11/02 07:26:07;;;;;;;15.60;7.80;;;;;;;14.08;65.93;95307.66;5053178;28;20257;-75
2022/11/02 07:28:36;;;;;;;16.00;6.90;;;;;;;14.18;65.08;95312.72;5053420;28;20269;-76
2022/11/02 07:31:04;;;;;;;16.17;7.45;;;;;;;14.24;64.99;95306.72;5052975;28;20227;-75
2022/11/02 07:33:31;;;;;;;21.80;11.32;;;;;;;14.36;64.09;95297.78;5053077;28;20239;-77
2022/11/02 07:36:06;;;;;;;23.27;11.48;;;;;;;14.38;64.31;95297.44;5052654;28;20659;-76
2022/11/02 07:38:33;;;;;;;17.85;6.97;;;;;;;14.66;63.28;95295.75;5052511;28;20352;-75
2022/11/02 07:41:00;;;;;;;10.32;5.68;;;;;;;14.64;62.62;95297.22;5053461;28;20207;-76
2022/11/02 07:43:27;;;;;;;20.05;10.23;;;;;;;15.06;61.34;95293.22;5052366;28;20195;-76
2022/11/02 07:45:55;;;;;;;14.13;8.55;;;;;;;15.21;60.94;95289.03;5053032;28;20299;-76
2022/11/02 07:48:21;;;;;;;21.00;6.53;;;;;;;15.14;61.20;95289.63;5052767;28;20246;-76
2022/11/02 07:50:48;;;;;;;22.45;9.63;;;;;;;15.05;61.64;95290.84;5052895;28;20687;-76
2022/11/02 07:53:16;;;;;;;19.25;10.13;;;;;;;15.07;61.61;95291.28;5052291;28;20265;-75
2022/11/02 07:55:43;;;;;;;29.17;10.07;;;;;;;15.16;61.53;95286.53;5052189;28;20231;-75
2022/11/02 07:58:12;;;;;;;15.48;6.72;;;;;;;15.21;61.23;95286.31;5052812;28;20212;-76
2022/11/02 08:00:40;;;;;;;20.73;7.85;;;;;;;15.69;60.55;95282.00;5052417;28;20566;-76
2022/11/02 08:03:09;;;;;;;23.98;10.82;;;;;;;15.95;59.28;95269.53;5052560;28;20279;-74
2022/11/02 08:05:37;;;;;;;18.17;7.97;;;;;;;16.05;58.87;95268.25;5052415;28;20207;-74
2022/11/02 08:08:06;;;;;;;16.25;7.13;;;;;;;15.62;59.65;95279.84;5051958;28;20200;-75
2022/11/02 08:10:35;;;;;;;20.80;7.82;;;;;;;15.60;59.54;95274.72;5051766;28;20207;-78
2022/11/02 08:13:03;;;;;;;18.15;7.50;;;;;;;15.75;59.31;95270.47;5052118;28;20196;-77
2022/11/02 08:15:30;;;;;;;12.15;6.55;;;;;;;16.08;59.12;95275.75;5065117;28;20721;-76
2022/11/02 08:18:01;;;;;;;14.30;7.75;;;;;;;16.30;58.43;95263.47;5051668;28;20269;-76
2022/11/02 08:20:28;;;;;;;18.70;7.80;;;;;;;16.00;58.58;95260.28;5052459;28;20200;-73
2022/11/02 08:22:56;;;;;;;21.55;8.18;;;;;;;16.18;58.38;95260.81;5052365;28;20191;-76
2022/11/02 08:25:23;;;;;;;16.60;7.25;;;;;;;16.30;58.23;95253.34;5051465;28;20196;-77
2022/11/02 08:27:51;;;;;;;17.48;7.53;;;;;;;16.55;57.82;95253.22;5051722;28;20555;-76
2022/11/02 08:30:18;;;;;;;15.48;7.90;;;;;;;16.55;57.42;95254.03;5050511;28;20245;-78
2022/11/02 08:32:45;;;;;;;13.93;7.57;;;;;;;16.84;56.49;95232.91;5050004;28;20258;-76
2022/11/02 08:35:11;;;;;;;18.48;7.50;;;;;;;17.07;55.98;95236.66;5051214;28;20223;-79
2022/11/02 08:37:38;;;;;;;28.90;11.40;;;;;;;16.92;55.87;95246.44;5050978;28;20245;-79
2022/11/02 08:40:06;;;;;;;21.38;10.90;;;;;;;17.09;56.05;95242.53;5050380;28;20204;-77
2022/11/02 08:42:33;;;;;;;29.58;11.32;;;;;;;17.29;55.84;95246.16;5051580;28;20199;-76
2022/11/02 08:45:02;;;;;;;27.27;11.30;;;;;;;17.35;54.93;95247.50;5065471;28;20270;-77
2022/11/02 08:47:29;;;;;;;19.13;10.82;;;;;;;17.36;54.73;95241.63;5051514;28;20207;-77
2022/11/02 08:49:56;;;;;;;22.35;11.70;;;;;;;17.59;54.10;95239.03;5045794;28;20478;-74
2022/11/02 08:52:22;;;;;;;21.48;10.25;;;;;;;17.68;53.34;95239.66;5057961;28;20211;-78
2022/11/02 08:54:49;;;;;;;17.42;8.63;;;;;;;17.55;53.00;95229.94;5051718;28;20239;-76
2022/11/02 08:57:16;;;;;;;25.00;11.65;;;;;;;17.66;54.25;95231.00;5051128;28;20207;-77
2022/11/02 08:59:43;;;;;;;24.88;11.25;;;;;;;17.78;53.38;95227.34;5051959;28;20204;-78
2022/11/02 09:02:11;;;;;;;17.40;10.82;;;;;;;17.79;53.43;95225.38;5051453;28;20214;-76
2022/11/02 09:04:37;;;;;;;22.80;11.82;;;;;;;17.54;54.29;95225.63;5051592;28;20199;-75
2022/11/02 09:07:04;;;;;;;21.48;11.27;;;;;;;17.73;53.49;95225.69;5051352;28;20249;-76
2022/11/02 09:09:31;;;;;;;24.27;10.85;;;;;;;17.99;52.89;95222.31;5051001;28;20195;-78
2022/11/02 09:11:58;;;;;;;17.60;10.80;;;;;;;18.11;52.26;95229.63;5051354;28;20215;-77
2022/11/02 09:14:24;;;;;;;25.27;11.95;;;;;;;17.99;52.79;95210.56;5063439;28;20632;-77
2022/11/02 09:16:51;;;;;;;26.98;11.82;;;;;;;18.39;52.34;95218.41;5051709;28;20928;-74
2022/11/02 09:19:19;;;;;;;18.65;10.75;;;;;;;18.60;51.93;95207.06;5063329;28;20204;-75
2022/11/02 09:21:46;;;;;;;24.13;11.70;;;;;;;18.75;51.05;95211.66;5051957;28;20234;-76
2022/11/02 09:24:13;;;;;;;26.23;11.35;;;;;;;19.02;51.11;95202.31;5050707;28;20283;-76
2022/11/02 09:26:40;;;;;;;23.80;11.85;;;;;;;19.03;50.51;95197.63;5050654;28;20708;-76
2022/11/02 09:29:07;;;;;;;21.45;11.60;;;;;;;19.13;50.35;95200.53;5050478;28;20276;-77
2022/11/02 09:31:34;;;;;;;28.10;11.98;;;;;;;19.33;49.56;95189.47;5050867;28;20219;-78
2022/11/02 09:34:00;;;;;;;28.77;12.40;;;;;;;19.26;49.54;95201.16;5050387;28;20293;-75
2022/11/02 09:36:28;;;;;;;24.02;12.82;;;;;;;19.18;50.02;95189.25;5050345;28;20819;-76
2022/11/02 09:38:55;;;;;;;21.52;11.75;;;;;;;19.46;49.61;95190.84;5050339;28;20208;-77
2022/11/02 09:41:30;;;;;;;24.38;11.77;;;;;;;19.56;48.30;95181.97;5049328;28;20268;-75
2022/11/02 09:44:03;;;;;;;22.77;11.05;;;;;;;19.60;48.95;95171.84;5050119;28;20206;-78
2022/11/02 09:46:33;;;;;;;21.23;12.45;;;;;;;19.57;48.55;95172.56;5050233;28;20222;-72
2022/11/02 09:49:03;;;;;;;23.23;10.95;;;;;;;19.64;48.23;95161.69;5037870;28;20234;-73
2022/11/02 09:51:37;;;;;;;22.50;11.25;;;;;;;19.76;48.50;95163.41;5049960;28;20207;-74
2022/11/02 09:54:11;;;;;;;21.30;11.32;;;;;;;19.85;47.83;95167.47;5050568;28;20191;-75
2022/11/02 09:56:41;;;;;;;30.75;12.80;;;;;;;20.04;47.75;95162.97;5050500;28;20642;-79
2022/11/02 09:59:13;;;;;;;26.75;12.15;;;;;;;20.22;47.37;95152.97;5050078;28;20307;-78
2022/11/02 10:02:01;;;;;;;31.60;12.30;;;;;;;20.54;46.70;95154.13;5050477;28;20250;-78
2022/11/02 10:04:55;;;;;;;24.08;12.15;;;;;;;20.73;46.06;95141.31;5050346;28;20669;-82
2022/11/02 10:07:53;;;;;;;18.33;11.57;;;;;;;20.47;46.53;95136.75;5049971;28;20658;-84
2022/11/02 10:10:31;;;;;;;27.33;11.55;;;;;;;20.69;46.72;95134.97;5049695;28;20281;-82
2022/11/02 10:13:11;;;;;;;19.52;11.15;;;;;;;20.73;46.13;95133.06;5049567;28;20196;-83
2022/11/02 10:15:41;;;;;;;23.52;12.30;;;;;;;20.88;45.29;95134.78;5050333;28;20265;-84
2022/11/02 10:18:17;;;;;;;18.13;11.05;;;;;;;20.98;45.47;95133.28;5049711;28;20191;-82
2022/11/02 10:20:46;;;;;;;22.27;11.88;;;;;;;21.09;43.76;95123.91;5037089;28;20202;-83
2022/11/02 10:23:20;;;;;;;20.80;10.80;;;;;;;21.31;44.26;95118.59;5049260;28;20254;-76
2022/11/02 10:25:48;;;;;;;21.23;10.90;;;;;;;21.54;44.19;95124.63;5048349;28;20198;-75
2022/11/02 10:28:18;;;;;;;20.45;10.00;;;;;;;21.36;43.88;95118.22;5048653;28;20215;-76
2022/11/02 10:30:45;;;;;;;21.70;10.13;;;;;;;21.60;43.91;95109.28;5049015;28;20227;-77
2022/11/02 10:33:15;;;;;;;21.10;10.45;;;;;;;21.75;43.27;95110.94;5047576;28;20605;-80
2022/11/02 10:35:51;;;;;;;22.92;11.77;;;;;;;21.87;42.88;95113.34;5048937;28;20228;-78
2022/11/02 10:38:30;;;;;;;21.08;10.13;;;;;;;21.96;42.19;95102.75;5066308;28;20202;-75
2022/11/02 10:41:29;;;;;;;22.02;8.95;;;;;;;21.85;41.52;95104.69;5069035;28;20206;-75
2022/11/02 10:44:19;;;;;;;16.55;8.35;;;;;;;22.03;41.42;95093.72;5038925;28;20188;-75
2022/11/02 10:46:58;;;;;;;13.13;6.97;;;;;;;22.25;40.65;95089.88;5036568;28;20678;-74
2022/11/02 10:49:51;;;;;;;17.17;7.25;;;;;;;22.23;40.58;95083.16;5034665;28;20208;-74
2022/11/02 10:52:18;;;;;;;10.70;6.18;;;;;;;22.19;40.11;95080.38;5049057;28;20199;-76
2022/11/02 10:54:49;;;;;;;13.50;7.90;;;;;;;22.41;40.17;95075.69;5047644;28;20637;-77
2022/11/02 10:57:23;;;;;;;12.30;6.60;;;;;;;22.37;40.07;95074.91;5048706;28;20199;-78
2022/11/02 11:00:21;;;;;;;16.50;7.47;;;;;;;22.51;39.59;95077.69;5048757;28;20238;-74
2022/11/02 11:03:02;;;;;;;12.27;6.25;;;;;;;22.52;39.58;95065.47;5052673;28;20670;-76
2022/11/02 11:05:29;;;;;;;11.80;5.28;;;;;;;22.70;39.72;95065.44;5048136;28;20253;-76
2022/11/02 11:07:56;;;;;;;14.27;6.55;;;;;;;22.60;39.76;95061.50;5048274;28;20203;-73
2022/11/02 11:10:24;;;;;;;13.50;5.20;;;;;;;22.67;39.29;95058.75;5049781;28;20469;-73
2022/11/02 11:12:51;;;;;;;12.02;5.32;;;;;;;22.79;39.44;95054.03;5068148;28;20253;-74
2022/11/02 11:15:23;;;;;;;12.05;5.60;;;;;;;22.94;39.22;95055.63;5053267;28;20230;-78
2022/11/02 11:17:51;;;;;;;12.80;5.60;;;;;;;22.85;39.11;95046.91;5057488;28;20210;-75
2022/11/02 11:20:34;;;;;;;14.23;5.32;;;;;;;23.03;38.77;95047.69;5051819;28;20207;-75
2022/11/02 11:23:19;;;;;;;12.93;4.82;;;;;;;23.04;38.74;95041.78;5048961;28;20195;-76
2022/11/02 11:26:01;;;;;;;8.48;4.65;;;;;;;23.08;37.73;95041.78;5048051;28;20203;-74
2022/11/02 11:28:31;;;;;;;8.65;4.32;;;;;;;23.18;37.31;95040.97;5034732;28;20212;-75
2022/11/02 11:31:08;;;;;;;10.88;4.15;;;;;;;23.42;35.57;95033.00;5050301;28;20226;-73
2022/11/02 11:33:44;;;;;;;7.47;3.22;;;;;;;23.45;34.92;95024.69;5066096;28;20242;-75
2022/11/02 11:36:11;;;;;;;8.43;2.72;;;;;;;23.53;34.29;95029.03;5066592;28;20237;-76
2022/11/02 11:38:48;;;;;;;6.35;2.53;;;;;;;23.57;34.39;95029.03;5066569;28;20666;-73
2022/11/02 11:41:17;;;;;;;7.35;2.63;;;;;;;23.64;33.50;95026.25;5066368;28;20232;-74
2022/11/02 11:43:45;;;;;;;7.88;2.83;;;;;;;23.78;32.90;95017.84;5066973;28;20549;-75
2022/11/02 11:46:14;;;;;;;4.68;2.65;;;;;;;23.93;33.21;95013.81;5066186;28;20650;-75
2022/11/02 11:48:45;;;;;;;6.72;2.88;;;;;;;23.87;32.48;95012.69;5046723;28;20680;-76
2022/11/02 11:51:27;;;;;;;4.68;2.22;;;;;;;23.86;32.61;95002.81;5043436;28;20211;-74
2022/11/02 11:54:16;;;;;;;8.77;2.50;;;;;;;23.91;32.09;95007.94;5046694;28;20251;-74
2022/11/02 11:56:45;;;;;;;4.80;2.33;;;;;;;23.92;31.96;95006.72;5046626;28;20297;-74
2022/11/02 11:59:28;;;;;;;6.22;1.95;;;;;;;24.03;31.49;94995.59;5047457;28;20298;-76